Mytilene, Greece

7:59 PM EET on December 06, 2016 (GMT +0200)
Odysseas Elytis | | Change Station

Elev 16 ft 39.05 °N, 26.60 °E | Updated 9 minutes ago

Partly Cloudy
Partly Cloudy
48 °F
Feels Like 48 °F
N
0
Wind Variable Wind from North

Today
High -- | Low -- °F
--% Chance of Precip.
Yesterday
High -- | Low -- °F
Precip. -- in
Pressure 30.30 in
Visibility 6.2 miles
Clouds Few 2500 ft
Dew Point 43 °F
Humidity 82%
Rainfall 0.00 in
Snow Depth Not available.
7:18 AM 4:50 PM
Waxing Crescent, 43% visible
METAR LGMT 061750Z 00000KT 9999 FEW025 09/06 Q1026
Pressure 30.30 in
Visibility 6.2 miles
Clouds Few 2500 ft
Dew Point 43 °F
Humidity 82%
Rainfall 0.00 in
Snow Depth Not available.
7:18 AM 4:50 PM
Waxing Crescent, 43% visible
METAR LGMT 061750Z 00000KT 9999 FEW025 09/06 Q1026

10-Day Weather Forecast

×

Almanac

Astronomy

Dec. 06, 2016 Rise Set
Actual Time
Civil Twilight
Nautical Twilight
Astronomical Twilight
Moon
Length of Visible Light
Length of Day
Tomorrow will be .
, % of the Moon is Illuminated

Today's Extremes

Country Highs Country Lows

Community

WunderPhotos

Upload Photos

1,955,986 photos uploaded!

WunderBlog® & News

Nearby

Air Quality

  Air Quality AQ Index Pollutant
Not available.

Snow Depth

Station Depth Elevation

Earthquake Activity

City Distance Mag. Time & Date
Minimum magnitude displayed is 2.5.

Coastal Water Temperatures

Place Temperature

Stations

Nearby Weather Stations

Station Location Temp. Windchill Dew Point Humidity Wind Precip. Elev Updated Type